Esmond, South Dakota
Current Conditions -  °F | °C
As of 6:55 PM on Saturday 25 Oct 2014 (Local Time) from KHON Reporting Station
Clear Clear  
Wind Chill: 55°   Ceiling: Unl
Heat Index: 55°   Visibility: 10mi
Dew Point: 31°   Wind: 5mph
Humidity: 40%   Direction: 60°ENE
Pressure: 30.05"   Gusts: NA
Location:  44.3062°N, 97.8068°W
Report Text: KHON 252355Z AUTO 06004KT 10SM CLR 13/M01 A3005 RMK AO2 SLP181 T01281006 10200 20128 58013
Loading
Personal Weather Stations






























Interactive Weather Map New forecast layout! Learn more

10-Day Weather Forecast

Advertisements
Track Severe Weather on mobile